createdAt,value
2022-11-13T00:00:45.621Z,74159.47
2022-11-13T00:01:36.880Z,74153.50
2022-11-13T00:02:30.427Z,74155.50
2022-11-13T00:03:21.300Z,74149.50
2022-11-13T00:04:14.963Z,74155.50
2022-11-13T00:05:06.631Z,74153.50
2022-11-13T00:06:03.080Z,74151.50
2022-11-13T00:06:58.946Z,74143.50
2022-11-13T00:07:52.997Z,74147.50
2022-11-13T00:08:43.976Z,74147.50
2022-11-13T00:09:37.414Z,74147.50
2022-11-13T00:10:27.972Z,74147.50
2022-11-13T00:11:22.758Z,74147.50
2022-11-13T00:12:13.847Z,74151.50
2022-11-13T00:13:07.537Z,74153.50
2022-11-13T00:14:00.965Z,74147.50
2022-11-13T00:14:54.916Z,74155.50
2022-11-13T00:15:45.800Z,74155.50
2022-11-13T00:16:39.265Z,74149.50
2022-11-13T00:17:30.187Z,74147.50
2022-11-13T00:18:23.608Z,74153.50
2022-11-13T00:19:14.145Z,74149.50
2022-11-13T00:20:09.232Z,74147.50
2022-11-13T00:21:05.536Z,74151.50
2022-11-13T00:22:00.360Z,74151.50
2022-11-13T00:22:50.976Z,74149.50
2022-11-13T00:23:44.752Z,74151.50
2022-11-13T00:24:35.668Z,74147.50
2022-11-13T00:25:29.088Z,74153.50
2022-11-13T00:26:21.211Z,74149.50
2022-11-13T00:27:14.453Z,74151.50
2022-11-13T00:28:05.734Z,74151.50
2022-11-13T00:29:00.744Z,74151.50
2022-11-13T00:29:54.117Z,74153.50
2022-11-13T00:30:47.657Z,74151.50
2022-11-13T00:31:38.369Z,74145.50
2022-11-13T00:32:32.017Z,74153.50
2022-11-13T00:33:45.276Z,74151.50
2022-11-13T00:34:52.296Z,74157.50
2022-11-13T00:35:43.063Z,74155.50
2022-11-13T00:36:36.648Z,74151.50
2022-11-13T00:37:27.491Z,74155.50
2022-11-13T00:38:21.148Z,74155.50
2022-11-13T00:39:11.943Z,74151.50
2022-11-13T00:40:05.220Z,74155.50
2022-11-13T00:40:56.254Z,74149.50
2022-11-13T00:41:49.735Z,74147.50
2022-11-13T00:42:40.482Z,74145.50
2022-11-13T00:43:33.631Z,74143.50
2022-11-13T00:44:24.414Z,74139.53
2022-11-13T00:45:20.639Z,74147.50
2022-11-13T00:46:11.453Z,74143.50
2022-11-13T00:47:06.936Z,74151.50
2022-11-13T00:47:57.989Z,74141.50
2022-11-13T00:48:51.556Z,74143.50
2022-11-13T00:49:42.143Z,74145.50
2022-11-13T00:50:35.648Z,74143.50
2022-11-13T00:51:26.314Z,74143.50
2022-11-13T00:52:19.804Z,74139.53
2022-11-13T00:53:15.244Z,74143.50
2022-11-13T00:54:11.358Z,74135.53
2022-11-13T00:55:02.357Z,74127.53
2022-11-13T00:55:55.760Z,74139.53
2022-11-13T00:56:46.428Z,74143.50
2022-11-13T00:57:39.733Z,74141.50
2022-11-13T00:58:30.668Z,74143.50
2022-11-13T00:59:24.141Z,74139.53
2022-11-13T01:00:18.077Z,74143.50
2022-11-13T01:01:13.867Z,74143.50
2022-11-13T01:02:04.857Z,74139.53
2022-11-13T01:02:58.362Z,74145.50
2022-11-13T01:03:49.444Z,74141.50
2022-11-13T01:04:42.928Z,74139.53
2022-11-13T01:05:36.276Z,74143.50
2022-11-13T01:06:31.067Z,74131.53
2022-11-13T01:07:21.701Z,74135.53
2022-11-13T01:08:16.984Z,74135.53
2022-11-13T01:09:08.077Z,74139.53
2022-11-13T01:10:01.299Z,74139.53
2022-11-13T01:10:53.936Z,74131.53
2022-11-13T01:11:47.728Z,74135.53
2022-11-13T01:12:38.441Z,74135.53
2022-11-13T01:13:31.747Z,74139.53
2022-11-13T01:14:22.359Z,74139.53
2022-11-13T01:15:16.039Z,74131.53
2022-11-13T01:16:11.084Z,74139.53
2022-11-13T01:17:04.479Z,74133.53
2022-11-13T01:17:55.840Z,74139.53
2022-11-13T01:18:49.248Z,74133.53
2022-11-13T01:19:40.470Z,74127.53
2022-11-13T01:20:34.015Z,74129.53
2022-11-13T01:21:26.408Z,74133.53
2022-11-13T01:22:19.959Z,74131.53
2022-11-13T01:23:11.034Z,74131.53
2022-11-13T01:24:04.644Z,74131.53
2022-11-13T01:24:55.485Z,74133.53
2022-11-13T01:25:48.712Z,74131.53
2022-11-13T01:26:39.644Z,74141.50
2022-11-13T01:27:33.554Z,74131.53
2022-11-13T01:28:24.249Z,74133.53
2022-11-13T01:29:17.737Z,74133.53
2022-11-13T01:30:10.246Z,74135.53
2022-11-13T01:31:03.677Z,74135.53
2022-11-13T01:31:57.274Z,74127.53
2022-11-13T01:32:50.674Z,74127.53
2022-11-13T01:33:41.295Z,74127.53
2022-11-13T01:34:34.804Z,74131.53
2022-11-13T01:35:26.034Z,74135.53
2022-11-13T01:36:21.397Z,74127.53
2022-11-13T01:37:12.471Z,74127.53
2022-11-13T01:38:06.255Z,74125.53
2022-11-13T01:38:57.418Z,74127.53
2022-11-13T01:39:51.160Z,74119.56
2022-11-13T01:40:45.789Z,74121.56
2022-11-13T01:41:39.389Z,74127.53
2022-11-13T01:42:29.917Z,74123.53
2022-11-13T01:43:27.986Z,74125.53
2022-11-13T01:44:19.720Z,74119.56
2022-11-13T01:45:43.509Z,74119.56
2022-11-13T01:46:35.045Z,74119.56
2022-11-13T01:47:30.923Z,74115.56
2022-11-13T01:48:22.028Z,74115.56
2022-11-13T01:49:30.269Z,74115.56
2022-11-13T01:50:21.155Z,74119.56
2022-11-13T01:51:14.171Z,74117.56
2022-11-13T01:52:10.628Z,74109.56
2022-11-13T01:53:01.621Z,74113.56
2022-11-13T01:53:55.894Z,74109.56
2022-11-13T01:54:50.617Z,74115.56
2022-11-13T01:55:44.231Z,74111.56
2022-11-13T01:56:35.184Z,74111.56
2022-11-13T01:57:28.792Z,74111.56
2022-11-13T01:58:19.407Z,74109.56
2022-11-13T01:59:16.421Z,74107.56
2022-11-13T02:00:10.501Z,74103.56
2022-11-13T02:01:03.907Z,74105.56
2022-11-13T02:01:55.472Z,74103.56
2022-11-13T02:02:51.633Z,74105.56
2022-11-13T02:03:42.539Z,74099.59
2022-11-13T02:04:36.639Z,74101.59
2022-11-13T02:05:27.588Z,74101.59
2022-11-13T02:06:19.479Z,74099.59
2022-11-13T02:07:15.827Z,74099.59
2022-11-13T02:08:06.840Z,74097.59
2022-11-13T02:09:00.642Z,74093.59
2022-11-13T02:09:53.109Z,74091.59
2022-11-13T02:10:47.716Z,74091.59
2022-11-13T02:11:38.748Z,74091.59
2022-11-13T02:12:36.101Z,74091.59
2022-11-13T02:13:27.155Z,74083.63
2022-11-13T02:14:20.900Z,74093.59
2022-11-13T02:15:11.845Z,74083.63
2022-11-13T02:16:05.190Z,74087.59
2022-11-13T02:16:59.054Z,74083.63
2022-11-13T02:17:57.422Z,74085.59
2022-11-13T02:18:48.282Z,74091.59
2022-11-13T02:19:43.940Z,74083.63
2022-11-13T02:20:40.109Z,74089.59
2022-11-13T02:21:38.935Z,74083.63
2022-11-13T02:22:35.763Z,74083.63
2022-11-13T02:23:36.525Z,74087.59
2022-11-13T02:24:32.621Z,74089.59
2022-11-13T02:25:28.572Z,74091.59
2022-11-13T02:26:20.610Z,74091.59
2022-11-13T02:27:18.653Z,74093.59
2022-11-13T02:28:09.423Z,74085.59
2022-11-13T02:29:03.080Z,74083.63
2022-11-13T02:29:53.955Z,74087.59
2022-11-13T02:30:47.505Z,74083.63
2022-11-13T02:31:38.432Z,74081.63
2022-11-13T02:32:32.090Z,74083.63
2022-11-13T02:33:25.335Z,74079.63
2022-11-13T02:34:18.907Z,74083.63
2022-11-13T02:35:09.866Z,74079.63
2022-11-13T02:36:00.718Z,74077.63
2022-11-13T02:36:54.343Z,74075.63
2022-11-13T02:37:44.825Z,74071.63
2022-11-13T02:38:39.482Z,74075.63
2022-11-13T02:39:32.719Z,74075.63
2022-11-13T02:40:27.264Z,74077.63
2022-11-13T02:41:17.936Z,74073.63
2022-11-13T02:42:11.611Z,74079.63
2022-11-13T02:43:02.147Z,74075.63
2022-11-13T02:43:55.380Z,74071.63
2022-11-13T02:44:46.447Z,74075.63
2022-11-13T02:45:40.293Z,74071.63
2022-11-13T02:46:31.076Z,74067.63
2022-11-13T02:47:24.808Z,74071.63
2022-11-13T02:48:15.694Z,74073.63
2022-11-13T02:49:09.296Z,74073.63
2022-11-13T02:49:59.988Z,74075.63
2022-11-13T02:50:53.728Z,74069.63
2022-11-13T02:51:44.360Z,74071.63
2022-11-13T02:52:37.857Z,74073.63
2022-11-13T02:53:28.852Z,74073.63
2022-11-13T02:54:22.128Z,74071.63
2022-11-13T02:55:15.860Z,74067.63
2022-11-13T02:56:10.284Z,74071.63
2022-11-13T02:57:01.069Z,74071.63
2022-11-13T02:57:54.324Z,74071.63
2022-11-13T02:58:45.300Z,74073.63
2022-11-13T02:59:38.504Z,74065.66
2022-11-13T03:00:29.537Z,74067.63
2022-11-13T03:01:23.317Z,74067.63
2022-11-13T03:02:14.366Z,74067.63
2022-11-13T03:03:08.043Z,74061.66
2022-11-13T03:03:59.021Z,74067.63
2022-11-13T03:06:03.649Z,74063.66
2022-11-13T03:06:56.993Z,74067.63
2022-11-13T03:07:47.959Z,74059.66
2022-11-13T03:08:41.487Z,74059.66
2022-11-13T03:09:32.311Z,74063.66
2022-11-13T03:10:28.514Z,74059.66
2022-11-13T03:11:19.183Z,74067.63
2022-11-13T03:12:13.195Z,74065.66
2022-11-13T03:13:04.383Z,74059.66
2022-11-13T03:13:55.005Z,74063.66
2022-11-13T03:14:48.396Z,74063.66
2022-11-13T03:15:39.498Z,74059.66
2022-11-13T03:16:33.001Z,74059.66
2022-11-13T03:17:23.967Z,74067.63
2022-11-13T03:18:15.004Z,74059.66
2022-11-13T03:19:08.431Z,74057.66
2022-11-13T03:19:59.647Z,74057.66
2022-11-13T03:20:54.282Z,74059.66
2022-11-13T03:21:44.994Z,74061.66
2022-11-13T03:22:38.576Z,74063.66
2022-11-13T03:23:29.454Z,74055.66
2022-11-13T03:24:22.852Z,74059.66
2022-11-13T03:25:13.526Z,74063.66
2022-11-13T03:26:14.819Z,74057.66
2022-11-13T03:27:06.032Z,74051.66
2022-11-13T03:27:59.675Z,74059.66
2022-11-13T03:28:50.510Z,74055.66
2022-11-13T03:29:43.787Z,74059.66
2022-11-13T03:30:34.369Z,74059.66
2022-11-13T03:31:28.047Z,74031.69
2022-11-13T03:32:19.067Z,73995.75
2022-11-13T03:33:12.508Z,73965.81
2022-11-13T03:34:03.564Z,73943.84
2022-11-13T03:34:56.965Z,73927.88
2022-11-13T03:35:48.401Z,73911.91
2022-11-13T03:36:42.333Z,73899.94
2022-11-13T03:37:33.282Z,73879.97
2022-11-13T03:38:27.161Z,73867.97
2022-11-13T03:39:18.044Z,73867.97
2022-11-13T03:40:12.887Z,73860.00
2022-11-13T03:41:04.050Z,73856.00
2022-11-13T03:41:59.983Z,73842.03
2022-11-13T03:42:50.836Z,73844.03
2022-11-13T03:43:44.603Z,73844.03
2022-11-13T03:44:35.452Z,73840.03
2022-11-13T03:45:29.157Z,73834.03
2022-11-13T03:46:20.154Z,73828.06
2022-11-13T03:47:13.489Z,73822.06
2022-11-13T03:48:05.227Z,73824.06
2022-11-13T03:48:59.157Z,73822.06
2022-11-13T03:49:50.107Z,73816.06
2022-11-13T03:50:45.591Z,73816.06
2022-11-13T03:51:36.590Z,73824.06
2022-11-13T03:52:30.201Z,73814.06
2022-11-13T03:53:21.829Z,73816.06
2022-11-13T03:54:15.354Z,73816.06
2022-11-13T03:55:06.739Z,73812.09
2022-11-13T03:56:00.323Z,73810.09
2022-11-13T03:56:50.977Z,73810.09
2022-11-13T03:57:46.933Z,73806.09
2022-11-13T03:58:40.329Z,73804.09
2022-11-13T03:59:33.985Z,73812.09
2022-11-13T04:00:24.476Z,73802.09
2022-11-13T04:01:17.885Z,73800.09
2022-11-13T04:02:09.078Z,73792.13
2022-11-13T04:03:02.924Z,73796.09
2022-11-13T04:03:54.064Z,73792.13
2022-11-13T04:04:47.639Z,73792.13
2022-11-13T04:05:38.608Z,73788.13
2022-11-13T04:06:32.305Z,73792.13
2022-11-13T04:07:23.183Z,73788.13
2022-11-13T04:08:16.785Z,73786.13
2022-11-13T04:09:07.628Z,73784.13
2022-11-13T04:10:00.922Z,73788.13
2022-11-13T04:10:51.802Z,73788.13
2022-11-13T04:11:44.992Z,73784.13
2022-11-13T04:12:36.037Z,73780.13
2022-11-13T04:13:29.525Z,73780.13
2022-11-13T04:14:25.816Z,73784.13
2022-11-13T04:15:16.964Z,73780.13
2022-11-13T04:16:10.987Z,73776.16
2022-11-13T04:17:01.711Z,73784.13
2022-11-13T04:17:55.343Z,73780.13
2022-11-13T04:18:46.155Z,73774.16
2022-11-13T04:19:39.511Z,73776.16
2022-11-13T04:20:30.705Z,73778.13
2022-11-13T04:21:24.076Z,73778.13
2022-11-13T04:22:14.792Z,73776.16
2022-11-13T04:23:12.740Z,73776.16
2022-11-13T04:24:03.662Z,73776.16
2022-11-13T04:24:57.319Z,73778.13
2022-11-13T04:25:49.248Z,73780.13
2022-11-13T04:26:42.839Z,73780.13
2022-11-13T04:27:33.448Z,73778.13
2022-11-13T04:28:27.707Z,73772.16
2022-11-13T04:29:21.607Z,73772.16
2022-11-13T04:30:15.428Z,73776.16
2022-11-13T04:31:06.205Z,73776.16
2022-11-13T04:31:59.842Z,73774.16
2022-11-13T04:32:50.418Z,73780.13
2022-11-13T04:33:44.223Z,73782.13
2022-11-13T04:34:35.180Z,73780.13
2022-11-13T04:35:28.696Z,73786.13
2022-11-13T04:36:19.551Z,73780.13
2022-11-13T04:37:12.825Z,73790.13
2022-11-13T04:38:03.492Z,73784.13
2022-11-13T04:38:57.177Z,73780.13
2022-11-13T04:39:48.011Z,73780.13
2022-11-13T04:40:41.920Z,73772.16
2022-11-13T04:41:51.300Z,73776.16
2022-11-13T04:42:51.991Z,73774.16
2022-11-13T04:43:42.581Z,73768.16
2022-11-13T04:44:38.812Z,73770.16
2022-11-13T04:45:29.692Z,73764.16
2022-11-13T04:46:23.130Z,73762.16
2022-11-13T04:47:14.097Z,73768.16
2022-11-13T04:48:07.534Z,73760.16
2022-11-13T04:48:58.697Z,73760.16
2022-11-13T04:49:52.049Z,73764.16
2022-11-13T04:50:43.168Z,73760.16
2022-11-13T04:51:36.480Z,73760.16
2022-11-13T04:52:28.658Z,73764.16
2022-11-13T04:53:21.949Z,73754.19
2022-11-13T04:54:12.814Z,73756.19
2022-11-13T04:55:07.217Z,73758.19
2022-11-13T04:55:57.904Z,73760.16
2022-11-13T04:56:51.062Z,73760.16
2022-11-13T04:57:42.235Z,73762.16
2022-11-13T04:58:35.732Z,73756.19
2022-11-13T04:59:26.576Z,73758.19
2022-11-13T05:00:23.179Z,73756.19
2022-11-13T05:01:13.902Z,73752.19
2022-11-13T05:02:07.620Z,73752.19
2022-11-13T05:02:58.706Z,73754.19
2022-11-13T05:03:52.085Z,73754.19
2022-11-13T05:04:42.735Z,73754.19
2022-11-13T05:05:36.100Z,73752.19
2022-11-13T05:06:27.117Z,73754.19
2022-11-13T05:07:21.333Z,73756.19
2022-11-13T05:08:12.920Z,73748.19
2022-11-13T05:09:06.589Z,73746.19
2022-11-13T05:09:57.452Z,73748.19
2022-11-13T05:10:50.739Z,73742.19
2022-11-13T05:11:41.797Z,73744.19
2022-11-13T05:12:35.460Z,73752.19
2022-11-13T05:13:26.743Z,73750.19
2022-11-13T05:14:20.484Z,73744.19
2022-11-13T05:15:11.371Z,73748.19
2022-11-13T05:16:09.118Z,73750.19
2022-11-13T05:17:00.093Z,73752.19
2022-11-13T05:17:54.560Z,73752.19
2022-11-13T05:18:45.751Z,73752.19
2022-11-13T05:19:39.583Z,73760.16
2022-11-13T05:20:30.320Z,73752.19
2022-11-13T05:21:23.877Z,73752.19
2022-11-13T05:22:14.810Z,73758.19
2022-11-13T05:23:08.264Z,73752.19
2022-11-13T05:23:59.427Z,73752.19
2022-11-13T05:24:52.912Z,73754.19
2022-11-13T05:25:43.819Z,73752.19
2022-11-13T05:26:40.054Z,73756.19
2022-11-13T05:27:31.136Z,73754.19
2022-11-13T05:28:24.813Z,73756.19
2022-11-13T05:29:15.970Z,73760.16
2022-11-13T05:30:11.029Z,73758.19
2022-11-13T05:31:09.978Z,73756.19
2022-11-13T05:32:03.466Z,73758.19
2022-11-13T05:32:54.386Z,73756.19
2022-11-13T05:33:48.107Z,73760.16
2022-11-13T05:34:38.761Z,73762.16
2022-11-13T05:35:32.427Z,73760.16
2022-11-13T05:36:23.397Z,73750.19
2022-11-13T05:37:17.290Z,73762.16
2022-11-13T05:38:08.239Z,73760.16
2022-11-13T05:39:01.708Z,73760.16
2022-11-13T05:39:52.673Z,73764.16
2022-11-13T05:40:45.997Z,73756.19
2022-11-13T05:41:36.708Z,73752.19
2022-11-13T05:42:30.193Z,73764.16
2022-11-13T05:43:21.008Z,73752.19
2022-11-13T05:44:14.430Z,73760.16
2022-11-13T05:45:06.248Z,73762.16
2022-11-13T05:46:01.123Z,73760.16
2022-11-13T05:46:57.356Z,73756.19
2022-11-13T05:47:48.026Z,73748.19
2022-11-13T05:48:41.793Z,73760.16
2022-11-13T05:49:33.006Z,73760.16
2022-11-13T05:50:26.624Z,73764.16
2022-11-13T05:51:19.039Z,73756.19
2022-11-13T05:52:12.822Z,73762.16
2022-11-13T05:53:03.683Z,73760.16
2022-11-13T05:53:57.688Z,73756.19
2022-11-13T05:54:48.331Z,73760.16
2022-11-13T05:55:41.604Z,73760.16
2022-11-13T05:56:33.926Z,73752.19
2022-11-13T05:57:27.390Z,73752.19
2022-11-13T05:58:18.188Z,73748.19
2022-11-13T05:59:11.668Z,73748.19
2022-11-13T06:00:02.244Z,73742.19
2022-11-13T06:01:08.711Z,73750.19
2022-11-13T06:02:02.710Z,73772.16
2022-11-13T06:02:56.342Z,73800.09
2022-11-13T06:03:48.118Z,73812.09
2022-11-13T06:04:41.715Z,73840.03
2022-11-13T06:05:35.451Z,73858.00
2022-11-13T06:06:29.834Z,73875.97
2022-11-13T06:07:29.323Z,73887.94
2022-11-13T06:08:22.876Z,73901.94
2022-11-13T06:09:16.428Z,73905.91
2022-11-13T06:10:11.070Z,73913.91
2022-11-13T06:11:06.972Z,73927.88
2022-11-13T06:12:00.621Z,73933.88
2022-11-13T06:12:51.686Z,73931.88
2022-11-13T06:13:45.124Z,73943.84
2022-11-13T06:14:36.773Z,73943.84
2022-11-13T06:15:30.144Z,73947.84
2022-11-13T06:16:25.907Z,73951.84
2022-11-13T06:17:24.796Z,73947.84
2022-11-13T06:18:15.684Z,73951.84
2022-11-13T06:19:11.128Z,73961.81
2022-11-13T06:20:02.052Z,73961.81
2022-11-13T06:21:00.352Z,73959.81
2022-11-13T06:21:50.967Z,73963.81
2022-11-13T06:22:48.308Z,73959.81
2022-11-13T06:23:40.582Z,73957.81
2022-11-13T06:24:36.029Z,73963.81
2022-11-13T06:25:27.503Z,73959.81
2022-11-13T06:26:28.824Z,73967.81
2022-11-13T06:27:19.599Z,73975.78
2022-11-13T06:28:10.192Z,73971.81
2022-11-13T06:29:05.528Z,73975.78
2022-11-13T06:29:58.012Z,73975.78
2022-11-13T06:30:51.808Z,73975.78
2022-11-13T06:31:45.526Z,73983.78
2022-11-13T06:32:38.660Z,73985.78
2022-11-13T06:33:33.504Z,73973.81
2022-11-13T06:34:24.390Z,73985.78
2022-11-13T06:35:24.668Z,73979.78
2022-11-13T06:36:20.866Z,73981.78
2022-11-13T06:37:14.452Z,73983.78
2022-11-13T06:38:05.197Z,73983.78
2022-11-13T06:38:58.918Z,73979.78
2022-11-13T06:39:49.653Z,73987.78
2022-11-13T06:40:43.336Z,73987.78
2022-11-13T06:41:34.941Z,73981.78
2022-11-13T06:42:28.192Z,73987.78
2022-11-13T06:43:18.699Z,73989.78
2022-11-13T06:44:12.552Z,73983.78
2022-11-13T06:45:03.496Z,73983.78
2022-11-13T06:45:56.788Z,73987.78
2022-11-13T06:46:47.601Z,73979.78
2022-11-13T06:47:44.024Z,73983.78
2022-11-13T06:48:35.009Z,73983.78
2022-11-13T06:49:28.499Z,73985.78
2022-11-13T06:50:19.303Z,73987.78
2022-11-13T06:51:16.292Z,73987.78
2022-11-13T06:52:07.580Z,73987.78
2022-11-13T06:53:01.136Z,73983.78
2022-11-13T06:53:52.139Z,73983.78
2022-11-13T06:54:45.336Z,73983.78
2022-11-13T06:55:36.445Z,73981.78
2022-11-13T06:56:30.183Z,73983.78
2022-11-13T06:57:21.040Z,73981.78
2022-11-13T06:58:14.364Z,73981.78
2022-11-13T06:59:08.299Z,73975.78
2022-11-13T07:00:02.279Z,73977.78
2022-11-13T07:00:53.605Z,73979.78
2022-11-13T07:01:47.256Z,73979.78
2022-11-13T07:02:40.809Z,73981.78
2022-11-13T07:03:34.044Z,73977.78
2022-11-13T07:04:24.807Z,73983.78
2022-11-13T07:05:18.443Z,73979.78
2022-11-13T07:06:14.023Z,73981.78
2022-11-13T07:07:07.771Z,73979.78
2022-11-13T07:07:58.591Z,73975.78
2022-11-13T07:08:52.340Z,73975.78
2022-11-13T07:09:43.199Z,73977.78
2022-11-13T07:10:36.566Z,73971.81
2022-11-13T07:11:27.680Z,73973.81
2022-11-13T07:12:20.944Z,73975.78
2022-11-13T07:13:11.780Z,73971.81
2022-11-13T07:14:05.707Z,73971.81
2022-11-13T07:14:56.479Z,73979.78
2022-11-13T07:15:49.984Z,73983.78
2022-11-13T07:17:07.428Z,73975.78
2022-11-13T07:17:57.082Z,73975.78
2022-11-13T07:18:54.102Z,73979.78
2022-11-13T07:19:44.924Z,73979.78
2022-11-13T07:20:38.524Z,73975.78
2022-11-13T07:21:29.142Z,73975.78
2022-11-13T07:22:22.581Z,73973.81
2022-11-13T07:23:13.565Z,73967.81
2022-11-13T07:24:11.484Z,73967.81
2022-11-13T07:25:05.806Z,73967.81
2022-11-13T07:25:59.052Z,73961.81
2022-11-13T07:26:50.150Z,73959.81
2022-11-13T07:27:47.953Z,73963.81
2022-11-13T07:28:39.255Z,73957.81
2022-11-13T07:29:32.660Z,73953.84
2022-11-13T07:30:23.937Z,73953.84
2022-11-13T07:31:18.699Z,73955.84
2022-11-13T07:32:09.661Z,73951.84
2022-11-13T07:33:08.144Z,73951.84
2022-11-13T07:33:59.278Z,73949.84
2022-11-13T07:34:52.663Z,73951.84
2022-11-13T07:35:43.622Z,73955.84
2022-11-13T07:36:37.294Z,73955.84
2022-11-13T07:37:28.325Z,73951.84
2022-11-13T07:38:21.896Z,73959.81
2022-11-13T07:39:12.641Z,73961.81
2022-11-13T07:40:07.089Z,73957.81
2022-11-13T07:40:58.737Z,73955.84
2022-11-13T07:41:52.732Z,73959.81
2022-11-13T07:42:43.643Z,73955.84
2022-11-13T07:43:37.283Z,73959.81
2022-11-13T07:44:52.865Z,73963.81
2022-11-13T07:45:41.705Z,73959.81
2022-11-13T07:46:32.215Z,73959.81
2022-11-13T07:47:26.289Z,73957.81
2022-11-13T07:48:20.556Z,73955.84
2022-11-13T07:49:13.981Z,73955.84
2022-11-13T07:50:09.745Z,73955.84
2022-11-13T07:51:05.222Z,73959.81
2022-11-13T07:51:56.220Z,73955.84
2022-11-13T07:52:49.839Z,73953.84
2022-11-13T07:53:40.751Z,73951.84
2022-11-13T07:54:34.237Z,73951.84
2022-11-13T07:55:24.676Z,73947.84
2022-11-13T07:56:22.924Z,73955.84
2022-11-13T07:57:14.616Z,73955.84
2022-11-13T07:58:08.668Z,73957.81
2022-11-13T07:58:59.567Z,73955.84
2022-11-13T07:59:53.058Z,73959.81
2022-11-13T08:00:44.315Z,73965.81
2022-11-13T08:01:38.568Z,73961.81
2022-11-13T08:02:29.387Z,73959.81
2022-11-13T08:03:25.604Z,73967.81
2022-11-13T08:04:16.705Z,73953.84
2022-11-13T08:05:10.696Z,73955.84
2022-11-13T08:06:02.662Z,73955.84
2022-11-13T08:06:55.846Z,73955.84
2022-11-13T08:07:51.185Z,73955.84
2022-11-13T08:08:45.012Z,73947.84
2022-11-13T08:09:36.121Z,73951.84
2022-11-13T08:10:29.715Z,73945.84
2022-11-13T08:11:20.532Z,73947.84
2022-11-13T08:12:14.383Z,73945.84
2022-11-13T08:13:07.523Z,73943.84
2022-11-13T08:14:01.118Z,73947.84
2022-11-13T08:14:52.060Z,73937.88
2022-11-13T08:15:45.673Z,73939.84
2022-11-13T08:16:36.549Z,73941.84
2022-11-13T08:17:30.130Z,73947.84
2022-11-13T08:18:23.660Z,73943.84
2022-11-13T08:19:17.179Z,73935.88
2022-11-13T08:20:09.917Z,73951.84
2022-11-13T08:21:08.093Z,73951.84
2022-11-13T08:22:02.773Z,73951.84
2022-11-13T08:22:59.245Z,73955.84
2022-11-13T08:23:50.598Z,73955.84
2022-11-13T08:24:43.879Z,73957.81
2022-11-13T08:25:36.248Z,73951.84
2022-11-13T08:26:29.408Z,73951.84
2022-11-13T08:27:20.388Z,73955.84
2022-11-13T08:28:13.844Z,73959.81
2022-11-13T08:29:04.855Z,73953.84
2022-11-13T08:29:58.898Z,73959.81
2022-11-13T08:30:49.456Z,73955.84
2022-11-13T08:31:42.866Z,73963.81
2022-11-13T08:32:33.969Z,73967.81
2022-11-13T08:33:30.020Z,73963.81
2022-11-13T08:34:20.918Z,73951.84
2022-11-13T08:35:18.952Z,73955.84
2022-11-13T08:36:11.315Z,73953.84
2022-11-13T08:37:04.598Z,73951.84
2022-11-13T08:37:56.059Z,73955.84
2022-11-13T08:38:50.944Z,73949.84
2022-11-13T08:39:41.532Z,73949.84
2022-11-13T08:40:35.140Z,73945.84
2022-11-13T08:41:25.929Z,73955.84
2022-11-13T08:42:19.380Z,73951.84
2022-11-13T08:43:10.279Z,73947.84
2022-11-13T08:44:03.451Z,73955.84
2022-11-13T08:44:54.248Z,73949.84
2022-11-13T08:45:48.669Z,73951.84
2022-11-13T08:46:39.369Z,73947.84
2022-11-13T08:47:32.515Z,73943.84
2022-11-13T08:48:26.770Z,73941.84
2022-11-13T08:49:20.504Z,73947.84
2022-11-13T08:50:11.204Z,73947.84
2022-11-13T08:51:04.616Z,73943.84
2022-11-13T08:51:55.103Z,73947.84
2022-11-13T08:52:48.391Z,73951.84
2022-11-13T08:53:39.093Z,73951.84
2022-11-13T08:54:32.532Z,73955.84
2022-11-13T08:55:24.158Z,73955.84
2022-11-13T08:56:17.659Z,73949.84
2022-11-13T08:57:08.292Z,73957.81
2022-11-13T08:58:02.563Z,73955.84
2022-11-13T08:58:53.583Z,73955.84
2022-11-13T08:59:46.946Z,73951.84
2022-11-13T09:00:37.865Z,73943.84
2022-11-13T09:01:31.592Z,73939.84
2022-11-13T09:02:22.409Z,73933.88
2022-11-13T09:03:15.945Z,73931.88
2022-11-13T09:04:09.432Z,73939.84
2022-11-13T09:05:03.123Z,73933.88
2022-11-13T09:05:53.752Z,73939.84
2022-11-13T09:06:47.260Z,73935.88
2022-11-13T09:07:38.117Z,73931.88
2022-11-13T09:08:33.124Z,73899.94
2022-11-13T09:09:23.952Z,73889.94
2022-11-13T09:10:18.164Z,73866.00
2022-11-13T09:11:08.864Z,73856.00
2022-11-13T09:12:02.175Z,73842.03
2022-11-13T09:12:58.072Z,73816.06
2022-11-13T09:13:53.549Z,73800.09
2022-11-13T09:14:44.331Z,73792.13
2022-11-13T09:15:37.512Z,73780.13
2022-11-13T09:16:28.371Z,73760.16
2022-11-13T09:17:21.949Z,73740.22
2022-11-13T09:18:12.612Z,73728.22
2022-11-13T09:19:06.626Z,73716.25
2022-11-13T09:20:03.912Z,73702.28
2022-11-13T09:20:59.008Z,73688.31
2022-11-13T09:21:51.240Z,73676.31
2022-11-13T09:22:44.488Z,73676.31
2022-11-13T09:23:36.261Z,73656.34
2022-11-13T09:24:29.834Z,73648.38
2022-11-13T09:25:20.755Z,73648.38
2022-11-13T09:26:14.261Z,73642.38
2022-11-13T09:27:05.238Z,73630.41
2022-11-13T09:28:00.191Z,73626.41
2022-11-13T09:28:51.228Z,73628.41
2022-11-13T09:29:44.742Z,73640.38
2022-11-13T09:30:38.636Z,73644.38
2022-11-13T09:31:32.465Z,73662.34
2022-11-13T09:32:23.452Z,73682.31
2022-11-13T09:33:17.257Z,73692.28
2022-11-13T09:34:08.337Z,73708.25
2022-11-13T09:35:04.785Z,73724.22
2022-11-13T09:35:55.659Z,73742.19
2022-11-13T09:36:49.000Z,73748.19
2022-11-13T09:37:40.092Z,73764.16
2022-11-13T09:38:33.815Z,73772.16
2022-11-13T09:39:24.407Z,73780.13
2022-11-13T09:40:27.161Z,73782.13
2022-11-13T09:41:21.526Z,73792.13
2022-11-13T09:42:18.642Z,73796.09
2022-11-13T09:43:20.947Z,73800.09
2022-11-13T09:44:19.164Z,73810.09
2022-11-13T09:45:12.780Z,73816.06
2022-11-13T09:46:10.810Z,73820.06
2022-11-13T09:47:08.330Z,73828.06
2022-11-13T09:48:09.492Z,73828.06
2022-11-13T09:49:04.959Z,73836.03
2022-11-13T09:50:08.473Z,73840.03
2022-11-13T09:51:00.086Z,73838.03
2022-11-13T09:51:55.380Z,73840.03
2022-11-13T09:52:46.713Z,73840.03
2022-11-13T09:53:41.232Z,73844.03
2022-11-13T09:54:31.969Z,73848.03
2022-11-13T09:55:29.771Z,73848.03
2022-11-13T09:56:26.422Z,73840.03
2022-11-13T09:57:28.041Z,73844.03
2022-11-13T09:58:23.655Z,73852.00
2022-11-13T09:59:24.388Z,73852.00
2022-11-13T10:00:17.964Z,73856.00
2022-11-13T10:01:17.895Z,73852.00
2022-11-13T10:02:21.535Z,73848.03
2022-11-13T10:03:39.390Z,73844.03
2022-11-13T10:04:47.841Z,73840.03
2022-11-13T10:05:46.592Z,73828.06
2022-11-13T10:06:52.480Z,73828.06
2022-11-13T10:07:51.499Z,73824.06
2022-11-13T10:08:52.686Z,73822.06
2022-11-13T10:09:52.937Z,73826.06
2022-11-13T10:10:55.917Z,73834.03
2022-11-13T10:11:51.323Z,73836.03
2022-11-13T10:12:45.274Z,73836.03
2022-11-13T10:13:40.516Z,73832.03
2022-11-13T10:14:38.462Z,73800.09
2022-11-13T10:15:29.634Z,73788.13
2022-11-13T10:16:30.963Z,73770.16
2022-11-13T10:17:25.463Z,73748.19
2022-11-13T10:18:21.709Z,73726.22
2022-11-13T10:19:20.528Z,73704.28
2022-11-13T10:20:16.966Z,73684.31
2022-11-13T10:21:20.813Z,73662.34
2022-11-13T10:22:32.064Z,73640.38
2022-11-13T10:23:31.582Z,73624.41
2022-11-13T10:24:25.668Z,73618.44
2022-11-13T10:25:22.552Z,73600.47
2022-11-13T10:26:15.647Z,73592.47
2022-11-13T10:27:12.078Z,73586.47
2022-11-13T10:28:43.057Z,73584.50
2022-11-13T10:29:30.973Z,73560.53
2022-11-13T10:30:21.988Z,73556.53